Murrells Inlet, SC

8:10 PM EDT on May 24, 2015 (GMT -0400)
Crazy Sister Marina, Murrells Inlet, SC | | Change Station
CLOSE
Current Station
Personal Weather Station
Location: Murrells Inlet, SC
Elevation: 15 ft
Nearby Weather Stations

Elev 15 ft 33.56 °N, 79.03 °W | Updated 14 seconds ago

Clear
Clear
74.7 °F
Feels Like 77 °F
N
10.0
Wind Variable Wind from SE
Gusts 10.0 mph

Today
High -- | Low -- °F
--% Chance of Precip.
Yesterday
High -- | Low -- °F
Precip. -- in
6:10 AM 8:15 PM
Waxing Crescent, 43% visible
Pressure 30.34 in
Visibility 10.0 miles
Clouds Few 3000 ft
Heat Index 77 °F
Dew Point 46 °F
Humidity 36%
Rainfall 0.00 in
Snow Depth Not available.
UV 0 out of 12
Pollen 7.80 out of 12
Air Quality Not available.
Flu Activity Local Activity
METAR KMYR 242345Z 13013KT 10SM FEW030 24/14 A3034

More Conditions Fewer Conditions

Pressure 30.34 in
Visibility 10.0 miles
Clouds Few 3000 ft
Heat Index 77 °F
Dew Point 46 °F
Humidity 36%
Rainfall 0.00 in
Snow Depth Not available.
UV 0 out of 12
Pollen 7.80 out of 12
Air Quality Not available.
Flu Activity Local Activity
METAR KMYR 242345Z 13013KT 10SM FEW030 24/14 A3034

More Conditions Fewer Conditions

10-Day Weather Forecast

Almanac

Astronomy

May. 24, 2015 Rise Set
Actual Time
Civil Twilight
Nautical Twilight
Astronomical Twilight
Moon
Length of Visible Light
Length of Day
Tomorrow will be .
, % of the Moon is Illuminated

Today's Extremes

State Highs State Lows

Community

WunderPhotos

Upload Photos

1,823,900 photos uploaded!

WunderBlogs® & News

Nearby

Air Quality

  Air Quality AQ Index Pollutant
Not available.

Snow Depth

Station Depth Elevation

Earthquake Activity

City Distance Mag. Time & Date
Minimum magnitude displayed is 2.5.

Coastal Water Temperatures

Place Temperature

Stations

Nearby Weather Stations

Station Location Temp. Windchill Dew Point Humidity Wind Precip. Elev Updated Type